sensor_id;sensor_type;location;lat;lon;timestamp;pressure;altitude;pressure_sealevel;temperature;humidity
65800;BME280;52544;48.116;11.660;2023-08-06T00:01:36;94955.47;;;15.36;100.00
65800;BME280;52544;48.116;11.660;2023-08-06T00:04:01;94962.63;;;15.36;100.00
65800;BME280;52544;48.116;11.660;2023-08-06T00:06:27;94963.66;;;15.35;100.00
65800;BME280;52544;48.116;11.660;2023-08-06T00:08:52;94954.00;;;15.34;100.00
65800;BME280;52544;48.116;11.660;2023-08-06T00:11:18;94960.69;;;15.30;100.00
65800;BME280;52544;48.116;11.660;2023-08-06T00:13:43;94958.19;;;15.28;100.00
65800;BME280;52544;48.116;11.660;2023-08-06T00:16:12;94969.66;;;15.29;100.00
65800;BME280;52544;48.116;11.660;2023-08-06T00:18:38;94968.00;;;15.28;100.00
65800;BME280;52544;48.116;11.660;2023-08-06T00:21:04;94970.69;;;15.28;100.00
65800;BME280;52544;48.116;11.660;2023-08-06T00:23:30;94968.00;;;15.28;100.00
65800;BME280;52544;48.116;11.660;2023-08-06T00:25:55;94975.38;;;15.25;100.00
65800;BME280;52544;48.116;11.660;2023-08-06T00:28:20;94974.34;;;15.27;100.00
65800;BME280;52544;48.116;11.660;2023-08-06T00:30:46;94962.56;;;15.21;100.00
65800;BME280;52544;48.116;11.660;2023-08-06T00:33:11;94968.06;;;15.19;100.00
65800;BME280;52544;48.116;11.660;2023-08-06T00:35:36;94964.44;;;15.12;100.00
65800;BME280;52544;48.116;11.660;2023-08-06T00:38:02;94962.47;;;15.06;100.00
65800;BME280;52544;48.116;11.660;2023-08-06T00:40:28;94964.28;;;15.06;100.00
65800;BME280;52544;48.116;11.660;2023-08-06T00:42:56;94960.66;;;14.98;100.00
65800;BME280;52544;48.116;11.660;2023-08-06T00:45:21;94969.84;;;14.96;100.00
65800;BME280;52544;48.116;11.660;2023-08-06T00:47:47;94954.00;;;14.94;100.00
65800;BME280;52544;48.116;11.660;2023-08-06T00:50:13;94953.19;;;14.94;100.00
65800;BME280;52544;48.116;11.660;2023-08-06T00:52:39;94944.38;;;14.93;100.00
65800;BME280;52544;48.116;11.660;2023-08-06T00:55:05;94938.06;;;14.86;100.00
65800;BME280;52544;48.116;11.660;2023-08-06T00:57:31;94935.75;;;14.83;100.00
65800;BME280;52544;48.116;11.660;2023-08-06T00:59:56;94940.25;;;14.83;100.00
65800;BME280;52544;48.116;11.660;2023-08-06T01:02:22;94934.94;;;14.83;100.00
65800;BME280;52544;48.116;11.660;2023-08-06T01:04:47;94944.91;;;14.81;100.00
65800;BME280;52544;48.116;11.660;2023-08-06T01:07:28;94949.59;;;14.79;100.00
65800;BME280;52544;48.116;11.660;2023-08-06T01:13:07;94943.94;;;14.73;100.00
65800;BME280;52544;48.116;11.660;2023-08-06T01:16:00;94940.13;;;14.68;100.00
65800;BME280;52544;48.116;11.660;2023-08-06T01:18:26;94937.66;;;14.66;100.00
65800;BME280;52544;48.116;11.660;2023-08-06T01:20:52;94934.16;;;14.66;100.00
65800;BME280;52544;48.116;11.660;2023-08-06T01:23:18;94937.34;;;14.61;100.00
65800;BME280;52544;48.116;11.660;2023-08-06T01:25:59;94932.66;;;14.63;100.00
65800;BME280;52544;48.116;11.660;2023-08-06T01:28:42;94936.34;;;14.62;100.00
65800;BME280;52544;48.116;11.660;2023-08-06T01:31:24;94927.66;;;14.60;100.00
65800;BME280;52544;48.116;11.660;2023-08-06T01:33:52;94930.34;;;14.60;100.00
65800;BME280;52544;48.116;11.660;2023-08-06T01:36:20;94929.50;;;14.60;100.00
65800;BME280;52544;48.116;11.660;2023-08-06T01:38:45;94922.72;;;14.57;100.00
65800;BME280;52544;48.116;11.660;2023-08-06T01:41:11;94923.53;;;14.58;100.00
65800;BME280;52544;48.116;11.660;2023-08-06T01:43:37;94926.34;;;14.56;100.00
65800;BME280;52544;48.116;11.660;2023-08-06T01:46:02;94927.34;;;14.55;100.00
65800;BME280;52544;48.116;11.660;2023-08-06T01:48:27;94927.34;;;14.55;100.00
65800;BME280;52544;48.116;11.660;2023-08-06T01:50:53;94919.72;;;14.52;100.00
65800;BME280;52544;48.116;11.660;2023-08-06T01:53:18;94925.03;;;14.52;100.00
65800;BME280;52544;48.116;11.660;2023-08-06T01:55:52;94929.38;;;14.53;100.00
65800;BME280;52544;48.116;11.660;2023-08-06T01:58:18;94923.56;;;14.49;100.00
65800;BME280;52544;48.116;11.660;2023-08-06T02:00:43;94926.34;;;14.48;100.00
65800;BME280;52544;48.116;11.660;2023-08-06T02:03:09;94920.38;;;14.46;100.00
65800;BME280;52544;48.116;11.660;2023-08-06T02:05:34;94915.88;;;14.46;100.00
65800;BME280;52544;48.116;11.660;2023-08-06T02:07:59;94921.53;;;14.43;100.00
65800;BME280;52544;48.116;11.660;2023-08-06T02:10:25;94914.75;;;14.41;100.00
65800;BME280;52544;48.116;11.660;2023-08-06T02:12:50;94912.06;;;14.41;100.00
65800;BME280;52544;48.116;11.660;2023-08-06T02:15:15;94906.91;;;14.39;100.00
65800;BME280;52544;48.116;11.660;2023-08-06T02:17:41;94903.59;;;14.37;100.00
65800;BME280;52544;48.116;11.660;2023-08-06T02:20:07;94902.75;;;14.37;100.00
65800;BME280;52544;48.116;11.660;2023-08-06T02:22:32;94902.91;;;14.35;100.00
65800;BME280;52544;48.116;11.660;2023-08-06T02:24:58;94903.44;;;14.31;100.00
65800;BME280;52544;48.116;11.660;2023-08-06T02:27:24;94895.44;;;14.31;100.00
65800;BME280;52544;48.116;11.660;2023-08-06T02:29:50;94893.16;;;14.28;100.00
65800;BME280;52544;48.116;11.660;2023-08-06T02:32:15;94890.00;;;14.24;100.00
65800;BME280;52544;48.116;11.660;2023-08-06T02:34:41;94885.00;;;14.21;100.00
65800;BME280;52544;48.116;11.660;2023-08-06T02:37:06;94874.53;;;14.19;100.00
65800;BME280;52544;48.116;11.660;2023-08-06T02:39:32;94870.88;;;14.20;100.00
65800;BME280;52544;48.116;11.660;2023-08-06T02:41:58;94881.19;;;14.15;100.00
65800;BME280;52544;48.116;11.660;2023-08-06T02:44:27;94876.22;;;14.12;100.00
65800;BME280;52544;48.116;11.660;2023-08-06T02:46:52;94871.72;;;14.13;100.00
65800;BME280;52544;48.116;11.660;2023-08-06T02:49:18;94864.56;;;14.13;100.00
65800;BME280;52544;48.116;11.660;2023-08-06T02:51:46;94853.91;;;14.13;100.00
65800;BME280;52544;48.116;11.660;2023-08-06T02:54:12;94856.25;;;14.08;100.00
65800;BME280;52544;48.116;11.660;2023-08-06T02:56:37;94840.13;;;14.10;100.00
65800;BME280;52544;48.116;11.660;2023-08-06T02:59:03;94828.31;;;14.12;100.00
65800;BME280;52544;48.116;11.660;2023-08-06T03:01:29;94832.81;;;14.12;100.00
65800;BME280;52544;48.116;11.660;2023-08-06T03:03:54;94836.94;;;14.14;100.00
65800;BME280;52544;48.116;11.660;2023-08-06T03:06:19;94842.78;;;14.10;100.00
65800;BME280;52544;48.116;11.660;2023-08-06T03:08:45;94832.00;;;14.11;100.00
65800;BME280;52544;48.116;11.660;2023-08-06T03:11:10;94838.47;;;14.09;100.00
65800;BME280;52544;48.116;11.660;2023-08-06T03:13:36;94829.00;;;14.06;100.00
65800;BME280;52544;48.116;11.660;2023-08-06T03:16:01;94831.34;;;14.01;100.00
65800;BME280;52544;48.116;11.660;2023-08-06T03:18:27;94831.69;;;13.98;100.00
65800;BME280;52544;48.116;11.660;2023-08-06T03:20:52;94843.31;;;13.97;100.00
65800;BME280;52544;48.116;11.660;2023-08-06T03:23:18;94848.31;;;13.92;100.00
65800;BME280;52544;48.116;11.660;2023-08-06T03:25:44;94850.97;;;13.92;100.00
65800;BME280;52544;48.116;11.660;2023-08-06T03:28:10;94853.97;;;13.89;100.00
65800;BME280;52544;48.116;11.660;2023-08-06T03:30:35;94853.97;;;13.89;100.00
65800;BME280;52544;48.116;11.660;2023-08-06T03:33:01;94850.97;;;13.84;100.00
65800;BME280;52544;48.116;11.660;2023-08-06T03:35:26;94845.66;;;13.84;100.00
65800;BME280;52544;48.116;11.660;2023-08-06T03:37:51;94846.34;;;13.86;100.00
65800;BME280;52544;48.116;11.660;2023-08-06T03:40:17;94851.66;;;13.86;100.00
65800;BME280;52544;48.116;11.660;2023-08-06T03:42:42;94845.34;;;13.79;100.00
65800;BME280;52544;48.116;11.660;2023-08-06T03:45:08;94835.38;;;13.81;100.00
65800;BME280;52544;48.116;11.660;2023-08-06T03:47:34;94836.03;;;13.83;100.00
65800;BME280;52544;48.116;11.660;2023-08-06T03:50:00;94843.00;;;13.84;100.00
65800;BME280;52544;48.116;11.660;2023-08-06T03:52:25;94847.31;;;13.85;100.00
65800;BME280;52544;48.116;11.660;2023-08-06T03:54:50;94837.88;;;13.82;100.00
65800;BME280;52544;48.116;11.660;2023-08-06T03:57:16;94845.16;;;13.80;100.00
65800;BME280;52544;48.116;11.660;2023-08-06T03:59:41;94844.19;;;13.81;100.00
65800;BME280;52544;48.116;11.660;2023-08-06T04:02:07;94836.38;;;13.80;100.00
65800;BME280;52544;48.116;11.660;2023-08-06T04:04:32;94834.38;;;13.82;100.00
65800;BME280;52544;48.116;11.660;2023-08-06T04:06:57;94844.34;;;13.80;100.00
65800;BME280;52544;48.116;11.660;2023-08-06T04:09:23;94836.53;;;13.78;100.00
65800;BME280;52544;48.116;11.660;2023-08-06T04:11:48;94839.38;;;13.77;100.00
65800;BME280;52544;48.116;11.660;2023-08-06T04:14:13;94836.03;;;13.74;100.00
65800;BME280;52544;48.116;11.660;2023-08-06T04:16:39;94838.88;;;13.73;100.00
65800;BME280;52544;48.116;11.660;2023-08-06T04:19:04;94838.38;;;13.69;100.00
65800;BME280;52544;48.116;11.660;2023-08-06T04:21:30;94833.06;;;13.69;100.00
65800;BME280;52544;48.116;11.660;2023-08-06T04:23:56;94832.06;;;13.70;100.00
65800;BME280;52544;48.116;11.660;2023-08-06T04:26:21;94830.59;;;13.68;100.00
65800;BME280;52544;48.116;11.660;2023-08-06T04:28:47;94836.38;;;13.71;100.00
65800;BME280;52544;48.116;11.660;2023-08-06T04:31:12;94837.06;;;13.73;100.00
65800;BME280;52544;48.116;11.660;2023-08-06T04:33:37;94838.88;;;13.73;100.00
65800;BME280;52544;48.116;11.660;2023-08-06T04:36:03;94840.22;;;13.77;100.00
65800;BME280;52544;48.116;11.660;2023-08-06T04:38:28;94844.03;;;13.74;100.00
65800;BME280;52544;48.116;11.660;2023-08-06T04:40:54;94843.03;;;13.75;100.00
65800;BME280;52544;48.116;11.660;2023-08-06T04:43:19;94846.69;;;13.74;100.00
65800;BME280;52544;48.116;11.660;2023-08-06T04:45:53;94845.03;;;13.73;100.00
65800;BME280;52544;48.116;11.660;2023-08-06T04:48:19;94833.38;;;13.74;100.00
65800;BME280;52544;48.116;11.660;2023-08-06T04:50:45;94833.06;;;13.78;100.00
65800;BME280;52544;48.116;11.660;2023-08-06T04:53:11;94849.16;;;13.76;100.00
65800;BME280;52544;48.116;11.660;2023-08-06T04:55:37;94840.03;;;13.79;100.00
65800;BME280;52544;48.116;11.660;2023-08-06T04:58:02;94845.03;;;13.82;100.00
65800;BME280;52544;48.116;11.660;2023-08-06T05:00:28;94843.19;;;13.82;100.00
65800;BME280;52544;48.116;11.660;2023-08-06T05:02:53;94841.03;;;13.86;100.00
65800;BME280;52544;48.116;11.660;2023-08-06T05:05:18;94851.31;;;13.89;100.00
65800;BME280;52544;48.116;11.660;2023-08-06T05:07:48;94836.84;;;13.91;100.00
65800;BME280;52544;48.116;11.660;2023-08-06T05:10:14;94844.66;;;13.93;100.00
65800;BME280;52544;48.116;11.660;2023-08-06T05:12:40;94843.00;;;13.92;100.00
65800;BME280;52544;48.116;11.660;2023-08-06T05:15:06;94844.50;;;13.94;100.00
65800;BME280;52544;48.116;11.660;2023-08-06T05:17:31;94842.66;;;13.95;100.00
65800;BME280;52544;48.116;11.660;2023-08-06T05:19:57;94844.31;;;13.96;100.00
65800;BME280;52544;48.116;11.660;2023-08-06T05:22:22;94840.66;;;13.97;100.00
65800;BME280;52544;48.116;11.660;2023-08-06T05:24:48;94841.50;;;13.97;100.00
65800;BME280;52544;48.116;11.660;2023-08-06T05:27:13;94847.47;;;13.99;100.00
65800;BME280;52544;48.116;11.660;2023-08-06T05:29:38;94850.97;;;14.00;100.00
65800;BME280;52544;48.116;11.660;2023-08-06T05:32:04;94842.34;;;13.98;100.00
65800;BME280;52544;48.116;11.660;2023-08-06T05:34:29;94839.69;;;13.98;100.00
65800;BME280;52544;48.116;11.660;2023-08-06T05:36:55;94854.63;;;13.99;100.00
65800;BME280;52544;48.116;11.660;2023-08-06T05:39:20;94842.16;;;13.99;100.00
65800;BME280;52544;48.116;11.660;2023-08-06T05:41:46;94852.97;;;13.98;100.00
65800;BME280;52544;48.116;11.660;2023-08-06T05:44:11;94854.63;;;13.99;100.00
65800;BME280;52544;48.116;11.660;2023-08-06T05:46:36;94853.81;;;13.98;100.00
65800;BME280;52544;48.116;11.660;2023-08-06T05:49:02;94852.47;;;13.94;100.00
65800;BME280;52544;48.116;11.660;2023-08-06T05:51:28;94849.00;;;13.94;100.00
65800;BME280;52544;48.116;11.660;2023-08-06T05:53:54;94851.66;;;13.94;100.00
65800;BME280;52544;48.116;11.660;2023-08-06T05:56:19;94850.47;;;13.96;100.00
65800;BME280;52544;48.116;11.660;2023-08-06T05:58:45;94837.84;;;13.98;100.00
65800;BME280;52544;48.116;11.660;2023-08-06T06:01:11;94842.97;;;14.00;100.00
65800;BME280;52544;48.116;11.660;2023-08-06T06:03:37;94849.81;;;14.03;100.00
65800;BME280;52544;48.116;11.660;2023-08-06T06:06:02;94847.97;;;14.03;100.00
65800;BME280;52544;48.116;11.660;2023-08-06T06:08:28;94851.28;;;14.05;100.00
65800;BME280;52544;48.116;11.660;2023-08-06T06:10:54;94854.63;;;14.07;100.00
65800;BME280;52544;48.116;11.660;2023-08-06T06:13:19;94852.59;;;14.09;100.00
65800;BME280;52544;48.116;11.660;2023-08-06T06:15:46;94851.44;;;14.12;100.00
65800;BME280;52544;48.116;11.660;2023-08-06T06:18:13;94853.91;;;14.13;100.00
65800;BME280;52544;48.116;11.660;2023-08-06T06:20:38;94858.22;;;14.14;100.00
65800;BME280;52544;48.116;11.660;2023-08-06T06:23:04;94857.06;;;14.17;100.00
65800;BME280;52544;48.116;11.660;2023-08-06T06:25:29;94855.56;;;14.22;100.00
65800;BME280;52544;48.116;11.660;2023-08-06T06:27:54;94855.22;;;14.25;100.00
65800;BME280;52544;48.116;11.660;2023-08-06T06:30:20;94853.53;;;14.33;100.00
65800;BME280;52544;48.116;11.660;2023-08-06T06:32:45;94856.50;;;14.38;100.00
65800;BME280;52544;48.116;11.660;2023-08-06T06:35:12;94859.00;;;14.39;100.00
65800;BME280;52544;48.116;11.660;2023-08-06T06:37:37;94846.84;;;14.45;100.00
65800;BME280;52544;48.116;11.660;2023-08-06T06:40:03;94854.34;;;14.49;100.00
65800;BME280;52544;48.116;11.660;2023-08-06T06:42:29;94849.50;;;14.53;100.00
65800;BME280;52544;48.116;11.660;2023-08-06T06:44:54;94850.47;;;14.60;100.00
65800;BME280;52544;48.116;11.660;2023-08-06T06:47:19;94850.75;;;14.65;100.00
65800;BME280;52544;48.116;11.660;2023-08-06T06:49:45;94851.72;;;14.72;100.00
65800;BME280;52544;48.116;11.660;2023-08-06T06:52:10;94852.03;;;14.78;100.00
65800;BME280;52544;48.116;11.660;2023-08-06T06:54:37;94860.16;;;14.84;100.00
65800;BME280;52544;48.116;11.660;2023-08-06T06:57:02;94843.03;;;14.87;100.00
65800;BME280;52544;48.116;11.660;2023-08-06T06:59:28;94852.47;;;14.89;100.00
65800;BME280;52544;48.116;11.660;2023-08-06T07:01:53;94865.13;;;14.95;100.00
65800;BME280;52544;48.116;11.660;2023-08-06T07:04:19;94849.44;;;15.00;100.00
65800;BME280;52544;48.116;11.660;2023-08-06T07:06:44;94854.22;;;15.05;100.00
65800;BME280;52544;48.116;11.660;2023-08-06T07:09:09;94856.53;;;15.08;100.00
65800;BME280;52544;48.116;11.660;2023-08-06T07:11:35;94848.84;;;15.13;100.00
65800;BME280;52544;48.116;11.660;2023-08-06T07:14:00;94850.16;;;15.17;100.00
65800;BME280;52544;48.116;11.660;2023-08-06T07:16:27;94845.75;;;15.24;100.00
65800;BME280;52544;48.116;11.660;2023-08-06T07:18:54;94853.81;;;15.39;100.00
65800;BME280;52544;48.116;11.660;2023-08-06T07:21:20;94850.75;;;15.50;100.00
65800;BME280;52544;48.116;11.660;2023-08-06T07:23:45;94856.19;;;15.57;100.00
65800;BME280;52544;48.116;11.660;2023-08-06T07:26:11;94853.47;;;15.65;100.00
65800;BME280;52544;48.116;11.660;2023-08-06T07:28:36;94865.78;;;15.66;100.00
65800;BME280;52544;48.116;11.660;2023-08-06T07:31:02;94852.66;;;15.65;100.00
65800;BME280;52544;48.116;11.660;2023-08-06T07:33:28;94867.13;;;15.62;100.00
65800;BME280;52544;48.116;11.660;2023-08-06T07:35:53;94867.88;;;15.56;100.00
65800;BME280;52544;48.116;11.660;2023-08-06T07:38:19;94871.59;;;15.47;100.00
65800;BME280;52544;48.116;11.660;2023-08-06T07:40:45;94862.66;;;15.40;100.00
65800;BME280;52544;48.116;11.660;2023-08-06T07:43:10;94856.34;;;15.33;100.00
65800;BME280;52544;48.116;11.660;2023-08-06T07:45:36;94853.22;;;15.29;100.00
65800;BME280;52544;48.116;11.660;2023-08-06T07:48:02;94857.63;;;15.22;100.00
65800;BME280;52544;48.116;11.660;2023-08-06T07:50:28;94860.44;;;15.20;100.00
65800;BME280;52544;48.116;11.660;2023-08-06T07:52:53;94861.16;;;15.14;100.00
65800;BME280;52544;48.116;11.660;2023-08-06T07:55:18;94856.47;;;15.16;100.00
65800;BME280;52544;48.116;11.660;2023-08-06T07:57:44;94851.13;;;15.16;100.00
65800;BME280;52544;48.116;11.660;2023-08-06T08:00:09;94844.00;;;15.17;100.00
65800;BME280;52544;48.116;11.660;2023-08-06T08:02:35;94840.84;;;15.13;100.00
65800;BME280;52544;48.116;11.660;2023-08-06T08:05:01;94836.00;;;15.17;100.00
65800;BME280;52544;48.116;11.660;2023-08-06T08:07:26;94823.13;;;15.20;100.00
65800;BME280;52544;48.116;11.660;2023-08-06T08:09:54;94823.25;;;15.27;100.00
65800;BME280;52544;48.116;11.660;2023-08-06T08:12:19;94815.50;;;15.40;100.00
65800;BME280;52544;48.116;11.660;2023-08-06T08:14:45;94807.16;;;15.58;100.00
65800;BME280;52544;48.116;11.660;2023-08-06T08:17:10;94809.72;;;15.74;100.00
65800;BME280;52544;48.116;11.660;2023-08-06T08:19:36;94809.91;;;15.88;100.00
65800;BME280;52544;48.116;11.660;2023-08-06T08:22:02;94807.44;;;16.01;100.00
65800;BME280;52544;48.116;11.660;2023-08-06T08:24:28;94802.47;;;16.13;100.00
65800;BME280;52544;48.116;11.660;2023-08-06T08:26:56;94792.53;;;16.21;100.00
65800;BME280;52544;48.116;11.660;2023-08-06T08:29:22;94799.28;;;16.32;100.00
65800;BME280;52544;48.116;11.660;2023-08-06T08:31:48;94785.25;;;16.45;100.00
65800;BME280;52544;48.116;11.660;2023-08-06T08:34:16;94793.16;;;16.53;100.00
65800;BME280;52544;48.116;11.660;2023-08-06T08:36:41;94785.88;;;16.62;100.00
65800;BME280;52544;48.116;11.660;2023-08-06T08:39:07;94792.88;;;16.63;100.00
65800;BME280;52544;48.116;11.660;2023-08-06T08:41:33;94801.91;;;16.62;100.00
65800;BME280;52544;48.116;11.660;2023-08-06T08:43:59;94808.25;;;16.61;100.00
65800;BME280;52544;48.116;11.660;2023-08-06T08:46:29;94805.03;;;16.65;100.00
65800;BME280;52544;48.116;11.660;2023-08-06T08:48:56;94811.94;;;16.74;100.00
65800;BME280;52544;48.116;11.660;2023-08-06T08:51:23;94806.03;;;16.64;100.00
65800;BME280;52544;48.116;11.660;2023-08-06T08:53:49;94810.53;;;16.64;100.00
65800;BME280;52544;48.116;11.660;2023-08-06T08:56:18;94807.03;;;16.63;100.00
65800;BME280;52544;48.116;11.660;2023-08-06T08:58:44;94825.69;;;16.57;100.00
65800;BME280;52544;48.116;11.660;2023-08-06T09:01:10;94819.78;;;16.46;100.00
65800;BME280;52544;48.116;11.660;2023-08-06T09:03:36;94814.72;;;16.37;100.00
65800;BME280;52544;48.116;11.660;2023-08-06T09:06:02;94816.09;;;16.47;100.00
65800;BME280;52544;48.116;11.660;2023-08-06T09:08:34;94825.06;;;16.40;100.00
65800;BME280;52544;48.116;11.660;2023-08-06T09:11:01;94832.09;;;16.47;100.00
65800;BME280;52544;48.116;11.660;2023-08-06T09:13:28;94828.34;;;16.42;100.00
65800;BME280;52544;48.116;11.660;2023-08-06T09:15:53;94826.78;;;16.33;100.00
65800;BME280;52544;48.116;11.660;2023-08-06T09:18:26;94831.09;;;16.34;100.00
65800;BME280;52544;48.116;11.660;2023-08-06T09:20:55;94841.78;;;16.34;100.00
65800;BME280;52544;48.116;11.660;2023-08-06T09:23:20;94846.41;;;16.40;100.00
65800;BME280;52544;48.116;11.660;2023-08-06T09:25:46;94850.91;;;16.24;100.00
65800;BME280;52544;48.116;11.660;2023-08-06T09:28:11;94842.72;;;16.11;100.00
65800;BME280;52544;48.116;11.660;2023-08-06T09:30:37;94832.84;;;16.12;100.00
65800;BME280;52544;48.116;11.660;2023-08-06T09:33:03;94841.69;;;16.12;100.00
65800;BME280;52544;48.116;11.660;2023-08-06T09:35:29;94833.31;;;16.15;100.00
65800;BME280;52544;48.116;11.660;2023-08-06T09:38:04;94836.34;;;16.12;100.00
65800;BME280;52544;48.116;11.660;2023-08-06T09:40:32;94830.81;;;16.14;100.00
65800;BME280;52544;48.116;11.660;2023-08-06T09:42:58;94847.31;;;16.17;100.00
65800;BME280;52544;48.116;11.660;2023-08-06T09:45:30;94833.88;;;16.25;100.00
65800;BME280;52544;48.116;11.660;2023-08-06T09:47:58;94842.16;;;16.31;100.00
65800;BME280;52544;48.116;11.660;2023-08-06T09:50:30;94846.94;;;16.35;100.00
65800;BME280;52544;48.116;11.660;2023-08-06T09:53:02;94844.38;;;16.42;100.00
65800;BME280;52544;48.116;11.660;2023-08-06T09:55:27;94842.78;;;16.47;100.00
65800;BME280;52544;48.116;11.660;2023-08-06T09:57:53;94841.31;;;16.60;100.00
65800;BME280;52544;48.116;11.660;2023-08-06T10:00:20;94842.53;;;16.57;100.00
65800;BME280;52544;48.116;11.660;2023-08-06T10:02:46;94845.81;;;16.59;100.00
65800;BME280;52544;48.116;11.660;2023-08-06T10:05:11;94845.00;;;16.59;100.00
65800;BME280;52544;48.116;11.660;2023-08-06T10:07:37;94851.16;;;16.59;100.00
65800;BME280;52544;48.116;11.660;2023-08-06T10:10:05;94863.72;;;16.44;100.00
65800;BME280;52544;48.116;11.660;2023-08-06T10:12:34;94852.81;;;16.31;100.00
65800;BME280;52544;48.116;11.660;2023-08-06T10:15:03;94856.34;;;16.16;100.00
65800;BME280;52544;48.116;11.660;2023-08-06T10:17:31;94864.34;;;16.16;100.00
65800;BME280;52544;48.116;11.660;2023-08-06T10:19:59;94853.31;;;16.19;100.00
65800;BME280;52544;48.116;11.660;2023-08-06T10:22:24;94862.03;;;16.13;100.00
65800;BME280;52544;48.116;11.660;2023-08-06T10:24:54;94846.56;;;15.94;100.00
65800;BME280;52544;48.116;11.660;2023-08-06T10:28:02;94842.59;;;15.90;100.00
65800;BME280;52544;48.116;11.660;2023-08-06T10:30:24;94852.25;;;15.91;100.00
65800;BME280;52544;48.116;11.660;2023-08-06T10:32:51;94840.50;;;16.15;100.00
65800;BME280;52544;48.116;11.660;2023-08-06T10:38:19;94842.53;;;16.42;100.00
65800;BME280;52544;48.116;11.660;2023-08-06T10:40:49;94841.34;;;16.45;100.00
65800;BME280;52544;48.116;11.660;2023-08-06T10:45:51;94857.63;;;16.50;100.00
65800;BME280;52544;48.116;11.660;2023-08-06T10:48:31;94841.50;;;16.58;100.00
65800;BME280;52544;48.116;11.660;2023-08-06T10:50:57;94865.38;;;16.45;100.00
65800;BME280;52544;48.116;11.660;2023-08-06T10:53:22;94848.69;;;16.43;100.00
65800;BME280;52544;48.116;11.660;2023-08-06T10:55:47;94848.69;;;16.28;100.00
65800;BME280;52544;48.116;11.660;2023-08-06T10:58:15;94853.38;;;16.26;100.00
65800;BME280;52544;48.116;11.660;2023-08-06T11:00:41;94867.56;;;16.27;100.00
65800;BME280;52544;48.116;11.660;2023-08-06T11:03:08;94857.44;;;16.37;100.00
65800;BME280;52544;48.116;11.660;2023-08-06T11:05:34;94856.06;;;16.56;100.00
65800;BME280;52544;48.116;11.660;2023-08-06T11:07:59;94854.41;;;16.84;100.00
65800;BME280;52544;48.116;11.660;2023-08-06T11:10:25;94862.25;;;17.07;100.00
65800;BME280;52544;48.116;11.660;2023-08-06T11:12:50;94849.91;;;17.06;100.00
65800;BME280;52544;48.116;11.660;2023-08-06T11:15:16;94853.16;;;17.02;100.00
65800;BME280;52544;48.116;11.660;2023-08-06T11:17:41;94856.50;;;16.89;100.00
65800;BME280;52544;48.116;11.660;2023-08-06T11:20:07;94861.53;;;16.98;100.00
65800;BME280;52544;48.116;11.660;2023-08-06T11:22:35;94867.34;;;17.02;100.00
65800;BME280;52544;48.116;11.660;2023-08-06T11:25:01;94859.19;;;16.89;100.00
65800;BME280;52544;48.116;11.660;2023-08-06T11:27:27;94866.47;;;16.95;100.00
65800;BME280;52544;48.116;11.660;2023-08-06T11:29:53;94872.06;;;16.70;100.00
65800;BME280;52544;48.116;11.660;2023-08-06T11:32:19;94878.63;;;16.53;100.00
65800;BME280;52544;48.116;11.660;2023-08-06T11:34:44;94890.41;;;16.44;100.00
65800;BME280;52544;48.116;11.660;2023-08-06T11:37:10;94891.88;;;16.46;100.00
65800;BME280;52544;48.116;11.660;2023-08-06T11:39:37;94886.53;;;16.46;100.00
65800;BME280;52544;48.116;11.660;2023-08-06T11:42:03;94893.34;;;16.64;100.00
65800;BME280;52544;48.116;11.660;2023-08-06T11:44:40;94895.00;;;16.65;100.00
65800;BME280;52544;48.116;11.660;2023-08-06T11:47:12;94881.47;;;16.66;100.00
65800;BME280;52544;48.116;11.660;2023-08-06T11:52:18;94888.50;;;16.53;100.00
65800;BME280;52544;48.116;11.660;2023-08-06T11:54:51;94901.09;;;16.44;100.00
65800;BME280;52544;48.116;11.660;2023-08-06T11:57:24;94894.09;;;16.43;100.00
65800;BME280;52544;48.116;11.660;2023-08-06T11:59:49;94908.19;;;16.37;100.00
65800;BME280;52544;48.116;11.660;2023-08-06T12:02:15;94906.41;;;16.29;100.00
65800;BME280;52544;48.116;11.660;2023-08-06T12:05:00;94894.25;;;16.27;100.00
65800;BME280;52544;48.116;11.660;2023-08-06T12:07:28;94907.09;;;16.31;100.00
65800;BME280;52544;48.116;11.660;2023-08-06T12:09:53;94907.63;;;16.41;100.00
65800;BME280;52544;48.116;11.660;2023-08-06T12:12:19;94913.69;;;16.35;100.00
65800;BME280;52544;48.116;11.660;2023-08-06T12:14:44;94906.22;;;16.31;100.00
65800;BME280;52544;48.116;11.660;2023-08-06T12:17:09;94909.19;;;16.36;100.00
65800;BME280;52544;48.116;11.660;2023-08-06T12:19:35;94908.19;;;16.37;100.00
65800;BME280;52544;48.116;11.660;2023-08-06T12:22:01;94911.31;;;16.40;100.00
65800;BME280;52544;48.116;11.660;2023-08-06T12:24:26;94910.50;;;16.40;100.00
65800;BME280;52544;48.116;11.660;2023-08-06T12:26:52;94905.88;;;16.48;100.00
65800;BME280;52544;48.116;11.660;2023-08-06T12:29:17;94889.97;;;16.40;100.00
65800;BME280;52544;48.116;11.660;2023-08-06T12:31:42;94901.53;;;16.33;100.00
65800;BME280;52544;48.116;11.660;2023-08-06T12:34:08;94899.22;;;16.30;100.00
65800;BME280;52544;48.116;11.660;2023-08-06T12:36:33;94893.34;;;16.19;100.00
65800;BME280;52544;48.116;11.660;2023-08-06T12:38:59;94906.75;;;16.11;100.00
65800;BME280;52544;48.116;11.660;2023-08-06T12:41:25;94886.31;;;16.04;100.00
65800;BME280;52544;48.116;11.660;2023-08-06T12:43:50;94897.53;;;15.99;100.00
65800;BME280;52544;48.116;11.660;2023-08-06T12:46:16;94900.00;;;16.00;100.00
65800;BME280;52544;48.116;11.660;2023-08-06T12:48:41;94898.34;;;15.99;100.00